Columbus Metropolitan Airport
KCSG : now visible

Airfield :











YOU CAN JOIN US ON...

 
LOGIN :

Register | Disclaimer

   EN    FR    IT 

 









Legend :    VFR   Marginal VFR   IFR   Intensive IFR   Very Intensive IFR
Visi :
Ceiling :
>= 8 km
>= 3000ft
5 to 8 km
1000 to 3000 ft
1500m to 5 km
500 to 1000 ft
800 to 1500m
200 to 500 ft
< 800m
< 200 ft
Symbols :   Thunderstorms  Fog  Heavy snow  Heavy precipitations  Wind > 20 kt






- Airport Elevation : 397 ft
- IATA code : CSG


KCSG - Columbus Metropolitan

CURRENT METAR :
  • 081951Z 13009KT 10SM BKN037 OVC055 18/07 A3016 RMK AO2 SLP211 T01780072

EXPIRED METARs :
  • 081851Z 11010KT 10SM FEW055 FEW090 18/07 A3018 RMK AO2 SLP218 T01780072
  • 081751Z 12009G16KT 10SM FEW055 BKN075 17/07 A3024 RMK AO2 SLP237 T01670067 10172 20117 58021

TAF KCSG
Valid from the 08 at 18:00 until the 09 at 18:00 UTC


081747Z 0818/0918 11011KT P6SM BKN070
FM090600 11007KT P6SM VCSH OVC025
FM091000 12008KT P6SM VCSH BKN012
TEMPO 0910/0913 6SM -RA BR BKN008
FM091300 13008KT 6SM -RA BR OVC008
FM091500 16008KT 4SM -RADZ BR OVC004
FM091700 20010KT P6SM SCT008 BKN012



MET'MAP, your aeronautical weather chart ! - Copyright ORBIFLY December 2007 - Disclaimer

ORBIFLY MET'MAP TEAM :

Programming & Development : Alexandra Zaïnal
Concept & original design : Baudouin d'Aumeries
Assistance for programming : Marc-Olivier Méhu
Technical & hardware support : Manuel Goepfert

Contact : metmap@orbifly.com




SOURCES & CREDITS :

   NOAA       Earth
Advisory